Time;durP1;ratioP1;P1;durP2;ratioP2;P2;SDS_P1;SDS_P2;PMS_P1;PMS_P2;Temp;Humidity;BMP_temperature;BMP_pressure;BME280_temperature;BME280_humidity;BME280_pressure;Samples;Min_cycle;Max_cycle;Signal;HPM_P1;HPM_P2
2023/10/01 00:00:43;;;;;;;17.90;11.30;;;512.00;2380.80;;;;;;5072802;28;20029;-58
2023/10/01 00:03:09;;;;;;;20.05;12.23;;;512.00;2380.80;;;;;;5077007;28;20454;-59
2023/10/01 00:05:35;;;;;;;22.98;12.63;;;512.10;2380.80;;;;;;5092923;28;20035;-58
2023/10/01 00:08:02;;;;;;;17.88;12.48;;;512.00;2380.80;;;;;;5092142;28;20085;-59
2023/10/01 00:10:27;;;;;;;17.20;11.48;;;512.10;2380.80;;;;;;5091969;28;20474;-58
2023/10/01 00:12:58;;;;;;;18.85;13.35;;;512.00;2380.80;;;;;;5092170;28;20040;-59
2023/10/01 00:15:25;;;;;;;26.15;12.93;;;512.00;2380.80;;;;;;5092198;28;20035;-59
2023/10/01 00:17:52;;;;;;;18.73;12.60;;;512.00;2380.80;;;;;;5091681;28;20025;-60
2023/10/01 00:20:23;;;;;;;16.05;12.00;;;512.00;2380.80;;;;;;5091887;28;20047;-59
2023/10/01 00:22:51;;;;;;;21.77;13.43;;;487.30;2380.80;;;;;;5092153;28;20427;-59
2023/10/01 00:25:18;;;;;;;17.63;11.63;;;487.30;2380.80;;;;;;5086690;28;20040;-59
2023/10/01 00:27:45;;;;;;;20.27;12.15;;;487.30;2380.80;;;;;;5078068;28;20020;-59
2023/10/01 00:30:11;;;;;;;25.35;14.35;;;487.20;2380.80;;;;;;5076219;28;20048;-59
2023/10/01 00:32:38;;;;;;;21.77;12.95;;;487.10;2380.80;;;;;;5091779;28;20545;-58
2023/10/01 00:35:05;;;;;;;17.95;12.80;;;487.10;2380.80;;;;;;5092439;28;20027;-59
2023/10/01 00:37:32;;;;;;;23.15;14.55;;;487.10;2380.80;;;;;;5091859;28;20499;-59
2023/10/01 00:39:59;;;;;;;18.00;13.38;;;487.10;2380.80;;;;;;5091721;28;20027;-58
2023/10/01 00:42:26;;;;;;;22.50;13.93;;;487.10;2380.80;;;;;;5091881;28;20066;-58
2023/10/01 00:44:53;;;;;;;23.67;14.00;;;487.10;2380.80;;;;;;5091687;28;20485;-58
2023/10/01 00:47:21;;;;;;;27.15;13.30;;;487.10;2380.80;;;;;;5091347;28;20108;-58
2023/10/01 00:49:47;;;;;;;21.67;14.60;;;487.10;2380.80;;;;;;5091493;28;20032;-59
2023/10/01 00:52:14;;;;;;;20.73;12.52;;;487.10;2380.80;;;;;;5091940;28;20039;-58
2023/10/01 00:54:40;;;;;;;21.35;13.75;;;487.10;2380.80;;;;;;5091306;28;20020;-59
2023/10/01 00:57:06;;;;;;;22.88;14.18;;;487.10;2380.80;;;;;;5091436;28;20680;-58
2023/10/01 00:59:33;;;;;;;23.63;13.13;;;487.10;2380.80;;;;;;5080261;28;20024;-59
2023/10/01 01:02:00;;;;;;;20.38;12.50;;;487.10;2380.80;;;;;;5073934;28;20537;-59
2023/10/01 01:04:29;;;;;;;25.92;14.93;;;487.10;2380.80;;;;;;5091170;28;20089;-59
2023/10/01 01:07:00;;;;;;;20.40;13.07;;;487.10;2380.80;;;;;;5091035;28;20020;-59
2023/10/01 01:09:28;;;;;;;23.05;14.13;;;487.10;2380.80;;;;;;5090509;28;20107;-59
2023/10/01 01:11:53;;;;;;;23.88;13.57;;;487.10;2380.80;;;;;;5091089;28;20072;-58
2023/10/01 01:14:21;;;;;;;23.75;15.10;;;487.00;2380.80;;;;;;5091221;28;20568;-59
2023/10/01 01:16:48;;;;;;;24.63;14.30;;;487.00;2380.80;;;;;;5090790;28;20056;-58
2023/10/01 01:19:15;;;;;;;27.10;13.43;;;486.90;2380.80;;;;;;5091250;28;20047;-58
2023/10/01 01:21:42;;;;;;;21.63;12.73;;;486.80;2380.80;;;;;;5090885;28;20068;-58
2023/10/01 01:24:09;;;;;;;23.02;12.27;;;486.80;2380.80;;;;;;5090922;28;20032;-58
2023/10/01 01:26:37;;;;;;;23.23;13.52;;;486.80;2380.80;;;;;;5091063;28;20020;-59
2023/10/01 01:29:17;;;;;;;22.65;12.85;;;486.70;2380.80;;;;;;5090819;28;20054;-59
2023/10/01 01:31:45;;;;;;;19.75;12.23;;;486.70;2380.80;;;;;;5090608;28;20522;-58
2023/10/01 01:34:12;;;;;;;22.73;12.65;;;486.70;2380.80;;;;;;5091121;28;20031;-58
2023/10/01 01:36:39;;;;;;;20.00;11.68;;;486.70;2380.80;;;;;;5085160;28;20035;-58
2023/10/01 01:39:35;;;;;;;22.02;13.70;;;486.70;2380.80;;;;;;5072317;28;20385;-59
2023/10/01 01:42:02;;;;;;;24.50;13.85;;;486.70;2380.80;;;;;;5079750;28;20028;-58
2023/10/01 01:44:28;;;;;;;23.25;13.63;;;486.70;2380.80;;;;;;5090167;28;20117;-59
2023/10/01 01:47:00;;;;;;;20.67;12.90;;;486.70;2380.80;;;;;;5090365;28;20070;-58
2023/10/01 01:49:26;;;;;;;23.02;14.07;;;486.70;2380.80;;;;;;5089933;28;20462;-58
2023/10/01 01:51:59;;;;;;;19.48;12.82;;;486.70;2380.80;;;;;;5091083;28;20032;-58
2023/10/01 01:54:37;;;;;;;19.92;12.00;;;486.60;2380.80;;;;;;5089963;28;20482;-59
2023/10/01 01:57:03;;;;;;;22.45;13.73;;;486.60;2380.80;;;;;;5090509;28;20495;-59
2023/10/01 01:59:29;;;;;;;25.38;15.32;;;486.50;2380.80;;;;;;5084138;28;20470;-57
2023/10/01 02:01:56;;;;;;;22.65;13.80;;;486.50;2380.80;;;;;;5070203;28;20529;-58
2023/10/01 02:04:22;;;;;;;20.70;12.00;;;486.50;2380.80;;;;;;5089214;28;20115;-58
2023/10/01 02:06:50;;;;;;;23.17;13.23;;;486.40;2380.80;;;;;;5083626;28;20021;-58
2023/10/01 02:09:19;;;;;;;18.52;12.18;;;486.40;2380.80;;;;;;5064393;28;20036;-59
2023/10/01 02:11:49;;;;;;;22.83;13.57;;;486.40;2380.80;;;;;;5089856;28;20036;-59
2023/10/01 02:14:31;;;;;;;25.40;15.05;;;461.70;2380.80;;;;;;5090519;28;20020;-59
2023/10/01 02:17:15;;;;;;;25.70;13.63;;;461.70;2380.80;;;;;;5089972;28;20370;-59
2023/10/01 02:19:46;;;;;;;20.27;13.15;;;461.70;2380.80;;;;;;5089748;28;20120;-57
2023/10/01 02:22:13;;;;;;;24.75;14.30;;;461.60;2380.80;;;;;;5089437;28;20016;-59
2023/10/01 02:24:45;;;;;;;22.67;13.52;;;461.60;2380.80;;;;;;5090246;28;20032;-59
2023/10/01 02:27:18;;;;;;;20.95;13.40;;;461.60;2380.80;;;;;;5089890;28;20044;-59
2023/10/01 02:32:29;;;;;;;25.02;12.93;;;461.50;2380.80;;;;;;5089856;28;20259;-59
2023/10/01 02:34:57;;;;;;;30.42;14.52;;;461.50;2380.80;;;;;;5089522;28;20028;-58
2023/10/01 02:37:29;;;;;;;28.00;14.98;;;461.50;2380.80;;;;;;5089391;28;20367;-59
2023/10/01 02:39:59;;;;;;;25.67;13.67;;;461.40;2380.80;;;;;;5076165;28;20486;-58
2023/10/01 02:42:26;;;;;;;22.40;13.68;;;461.50;2380.80;;;;;;5079986;28;20254;-59
2023/10/01 02:44:53;;;;;;;25.00;13.65;;;461.40;2380.80;;;;;;5089031;28;20163;-59
2023/10/01 02:47:20;;;;;;;22.52;13.50;;;461.40;2380.80;;;;;;5089244;28;20026;-59
2023/10/01 02:49:49;;;;;;;21.33;14.02;;;461.40;2380.80;;;;;;5062603;28;20069;-59
2023/10/01 02:52:17;;;;;;;25.05;13.30;;;461.30;2380.80;;;;;;5089067;28;20027;-60
2023/10/01 02:54:44;;;;;;;25.98;14.98;;;461.40;2380.80;;;;;;5088869;28;20054;-59
2023/10/01 02:57:12;;;;;;;24.02;14.57;;;461.40;2380.80;;;;;;5089391;28;20058;-60
2023/10/01 03:02:30;;;;;;;24.63;13.75;;;461.40;2380.80;;;;;;5089470;28;20027;-60
2023/10/01 03:05:01;;;;;;;21.30;13.43;;;461.40;2380.80;;;;;;5089166;28;20043;-59
2023/10/01 03:07:33;;;;;;;23.02;13.30;;;461.40;2380.80;;;;;;5089153;28;20424;-59
2023/10/01 03:10:00;;;;;;;19.63;12.93;;;461.40;2380.80;;;;;;5088614;28;20463;-59
2023/10/01 03:12:35;;;;;;;24.25;12.82;;;461.40;2380.80;;;;;;5085222;28;20028;-59
2023/10/01 03:15:15;;;;;;;22.77;14.18;;;461.40;2380.80;;;;;;5077143;28;20476;-59
2023/10/01 03:17:57;;;;;;;24.20;13.65;;;461.40;2380.80;;;;;;5088498;28;20027;-58
2023/10/01 03:26:07;;;;;;;21.20;12.32;;;461.40;2380.80;;;;;;5089141;28;20547;-59
2023/10/01 03:29:14;;;;;;;20.27;12.98;;;461.30;2380.80;;;;;;5088256;28;20020;-58
2023/10/01 03:31:22;;;;;;;22.77;13.75;;;461.30;2380.80;;;;;;5088268;28;20394;-60
2023/10/01 03:33:53;;;;;;;20.60;12.20;;;461.30;2380.80;;;;;;5088322;28;20057;-59
2023/10/01 03:36:25;;;;;;;24.08;13.52;;;461.20;2380.80;;;;;;5088279;28;20123;-59
2023/10/01 03:38:57;;;;;;;23.08;12.35;;;461.20;2380.80;;;;;;5088300;28;20054;-59
2023/10/01 03:41:27;;;;;;;20.05;13.20;;;461.20;2380.80;;;;;;5074346;28;20430;-60
2023/10/01 03:44:07;;;;;;;26.15;12.73;;;461.20;2380.80;;;;;;5088399;28;20048;-59
2023/10/01 03:46:33;;;;;;;21.08;12.25;;;461.10;2380.80;;;;;;5080798;28;20078;-58
2023/10/01 03:49:33;;;;;;;21.40;13.55;;;461.10;2380.80;;;;;;5071307;28;20417;-58
2023/10/01 03:51:58;;;;;;;20.60;14.27;;;461.00;2380.80;;;;;;5088335;28;20085;-57
2023/10/01 03:57:17;;;;;;;19.23;12.55;;;461.20;2380.80;;;;;;5088483;28;20125;-59
2023/10/01 03:59:51;;;;;;;20.83;13.20;;;461.30;2380.80;;;;;;5088578;28;20039;-59
2023/10/01 04:02:27;;;;;;;25.40;13.40;;;461.20;2380.80;;;;;;5088755;28;20103;-59
2023/10/01 04:04:56;;;;;;;21.20;12.70;;;461.10;2380.80;;;;;;5088497;28;20036;-59
2023/10/01 04:07:26;;;;;;;23.23;14.18;;;461.20;2380.80;;;;;;5088830;28;20119;-57
2023/10/01 04:09:52;;;;;;;20.50;12.40;;;461.20;2380.80;;;;;;5070889;28;20037;-58
2023/10/01 04:12:19;;;;;;;20.30;12.57;;;461.30;2380.80;;;;;;5076187;28;20051;-58
2023/10/01 04:14:48;;;;;;;27.80;13.82;;;461.30;2380.80;;;;;;5087698;28;20388;-59
2023/10/01 04:17:25;;;;;;;22.65;13.05;;;461.30;2380.80;;;;;;5088421;28;20055;-58
2023/10/01 04:19:57;;;;;;;27.20;13.85;;;461.30;2380.80;;;;;;5087858;28;20513;-58
2023/10/01 04:22:25;;;;;;;20.88;13.82;;;461.30;2380.80;;;;;;5088842;28;20369;-59
2023/10/01 04:25:01;;;;;;;20.98;13.18;;;461.30;2380.80;;;;;;5086200;28;20072;-59
2023/10/01 04:27:32;;;;;;;19.15;13.15;;;461.40;2380.80;;;;;;5068633;28;20025;-58
2023/10/01 04:30:00;;;;;;;19.88;13.18;;;461.40;2380.80;;;;;;5085091;28;20020;-58
2023/10/01 04:32:29;;;;;;;17.48;12.68;;;461.40;2380.80;;;;;;5088185;28;20052;-58
2023/10/01 04:34:58;;;;;;;23.48;12.63;;;461.70;2380.80;;;;;;5088126;28;20020;-59
2023/10/01 04:37:36;;;;;;;18.23;11.07;;;486.40;2380.80;;;;;;5084957;28;20060;-59
2023/10/01 04:40:54;;;;;;;19.70;12.73;;;461.50;2380.80;;;;;;5081172;28;20107;-59
2023/10/01 04:42:56;;;;;;;19.63;11.87;;;461.40;2380.80;;;;;;5050658;28;20036;-59
2023/10/01 04:45:25;;;;;;;17.38;12.32;;;461.40;2380.80;;;;;;5090983;28;20584;-59
2023/10/01 04:47:55;;;;;;;19.80;12.55;;;461.40;2380.80;;;;;;5091259;28;20038;-58
2023/10/01 04:50:27;;;;;;;17.67;11.30;;;461.50;2380.80;;;;;;5091374;28;20119;-59
2023/10/01 04:52:58;;;;;;;19.95;12.18;;;461.50;2380.80;;;;;;5091804;28;20131;-59
2023/10/01 04:55:30;;;;;;;19.92;11.80;;;461.50;2380.80;;;;;;5091347;28;20052;-59
2023/10/01 04:57:57;;;;;;;19.52;12.57;;;461.50;2380.80;;;;;;5054359;28;20437;-60
2023/10/01 05:00:24;;;;;;;22.30;12.52;;;461.50;2380.80;;;;;;5073735;28;20044;-58
2023/10/01 05:02:51;;;;;;;15.38;10.95;;;461.50;2380.80;;;;;;5090924;28;20028;-59
2023/10/01 05:05:26;;;;;;;18.80;10.88;;;461.50;2380.80;;;;;;5091180;28;20539;-58
2023/10/01 05:07:56;;;;;;;20.20;11.35;;;461.50;2380.80;;;;;;5091660;28;20125;-58
2023/10/01 05:10:22;;;;;;;20.02;11.27;;;461.50;2380.80;;;;;;5090967;28;20478;-59
2023/10/01 05:12:54;;;;;;;19.00;11.23;;;461.50;2380.80;;;;;;5091214;28;20481;-59
2023/10/01 05:15:34;;;;;;;14.95;9.55;;;461.60;2380.80;;;;;;5091179;28;20016;-58
2023/10/01 05:18:04;;;;;;;14.85;10.00;;;461.50;2380.80;;;;;;5091391;28;20379;-58
2023/10/01 05:20:30;;;;;;;17.33;11.43;;;461.60;2380.80;;;;;;5090481;28;20441;-58
2023/10/01 05:22:59;;;;;;;17.38;10.43;;;461.50;2380.80;;;;;;5091387;28;20028;-59
2023/10/01 05:25:27;;;;;;;18.10;10.23;;;461.50;2380.80;;;;;;5090583;28;20071;-58
2023/10/01 05:27:56;;;;;;;16.40;9.85;;;461.50;2380.80;;;;;;5091272;28;20031;-59
2023/10/01 05:30:42;;;;;;;14.50;10.68;;;461.60;2380.80;;;;;;5064553;28;20034;-58
2023/10/01 05:33:12;;;;;;;19.85;10.70;;;461.60;2380.80;;;;;;5074430;28;20537;-58
2023/10/01 05:35:44;;;;;;;17.80;10.63;;;461.60;2380.80;;;;;;5090962;28;20088;-58
2023/10/01 05:38:10;;;;;;;17.52;9.65;;;461.70;2380.80;;;;;;5090415;28;20095;-59
2023/10/01 05:40:40;;;;;;;16.33;10.10;;;461.70;2380.80;;;;;;5090970;28;20099;-59
2023/10/01 05:43:14;;;;;;;19.40;10.63;;;461.70;2380.80;;;;;;5085845;28;20093;-58
2023/10/01 05:45:50;;;;;;;19.10;10.50;;;461.70;2380.80;;;;;;5083305;28;20051;-59
2023/10/01 05:48:19;;;;;;;17.15;10.93;;;461.70;2380.80;;;;;;5065908;28;20024;-58
2023/10/01 05:50:49;;;;;;;17.55;10.18;;;486.40;2380.80;;;;;;5077558;28;20031;-57
2023/10/01 05:53:18;;;;;;;16.48;10.00;;;486.50;2380.80;;;;;;5076681;28;20032;-59
2023/10/01 05:55:44;;;;;;;18.45;11.05;;;486.60;2380.80;;;;;;5079272;28;20036;-58
2023/10/01 05:58:13;;;;;;;15.55;10.00;;;486.70;2380.80;;;;;;5087244;28;20032;-59
2023/10/01 06:00:56;;;;;;;17.77;10.38;;;486.90;2380.80;;;;;;5090032;28;20063;-58
2023/10/01 06:03:26;;;;;;;13.85;9.82;;;487.10;2380.80;;;;;;5089277;28;20012;-59
2023/10/01 06:05:58;;;;;;;11.48;8.65;;;487.30;2380.80;;;;;;5069036;28;20036;-57
2023/10/01 06:08:44;;;;;;;17.45;10.63;;;487.30;2380.80;;;;;;5064785;28;20068;-58
2023/10/01 06:11:13;;;;;;;17.85;10.07;;;487.30;2380.80;;;;;;5089804;28;20038;-58
2023/10/01 06:13:48;;;;;;;13.48;9.23;;;487.10;2380.80;;;;;;5089600;28;20020;-58
2023/10/01 06:16:16;;;;;;;15.98;9.13;;;487.10;2380.80;;;;;;5090133;28;20059;-59
2023/10/01 06:18:51;;;;;;;14.60;8.88;;;487.00;2380.80;;;;;;5089826;28;20122;-57
2023/10/01 06:21:18;;;;;;;16.13;9.25;;;487.00;2380.80;;;;;;5089972;28;20081;-57
2023/10/01 06:23:50;;;;;;;13.05;8.48;;;486.90;2380.80;;;;;;5089663;28;20598;-59
2023/10/01 06:26:45;;;;;;;14.75;9.82;;;486.90;2380.80;;;;;;5089665;28;20032;-57
2023/10/01 06:29:13;;;;;;;;;;;486.80;2380.80;;;;;;5070039;28;20042;-58
2023/10/01 06:32:02;;;;;;;13.07;8.45;;;487.00;2380.80;;;;;;5089916;28;19931;-59
2023/10/01 06:34:34;;;;;;;14.80;9.13;;;487.10;2380.80;;;;;;5089039;28;20428;-58
2023/10/01 06:37:01;;;;;;;14.68;8.73;;;512.10;2380.80;;;;;;5089498;28;20568;-59
2023/10/01 06:39:32;;;;;;;12.18;7.28;;;512.50;2380.80;;;;;;5071745;28;20071;-58
2023/10/01 06:44:44;;;;;;;13.77;8.55;;;537.70;2406.40;;;;;;5089243;28;20043;-59
2023/10/01 06:47:16;;;;;;;12.10;8.45;;;537.60;2406.40;;;;;;5089438;28;20128;-59
2023/10/01 06:50:07;;;;;;;13.65;8.52;;;512.90;2380.80;;;;;;5089003;28;20089;-58
2023/10/01 06:52:36;;;;;;;15.57;8.18;;;512.80;2380.80;;;;;;5089048;28;20386;-58
2023/10/01 06:55:05;;;;;;;9.98;6.80;;;512.70;2380.80;;;;;;5089369;28;20466;-58
2023/10/01 06:57:33;;;;;;;14.73;7.15;;;512.40;2380.80;;;;;;5088730;28;20044;-58
2023/10/01 07:00:13;;;;;;;12.35;7.93;;;512.00;2380.80;;;;;;5089131;28;20127;-59
2023/10/01 07:02:40;;;;;;;11.05;7.38;;;487.30;2380.80;;;;;;5088537;28;20020;-59
2023/10/01 07:05:08;;;;;;;13.27;7.63;;;487.30;2380.80;;;;;;5089066;28;20032;-58
2023/10/01 07:07:35;;;;;;;11.50;7.45;;;487.30;2380.80;;;;;;5088458;28;20031;-58
2023/10/01 07:10:10;;;;;;;13.15;8.15;;;487.20;2380.80;;;;;;5073665;28;20111;-58
2023/10/01 07:12:37;;;;;;;14.63;8.40;;;487.30;2380.80;;;;;;5082366;28;20044;-59
2023/10/01 07:15:04;;;;;;;13.23;7.50;;;487.20;2380.80;;;;;;5082096;28;20020;-59
2023/10/01 07:17:31;;;;;;;9.23;7.38;;;487.00;2380.80;;;;;;5074218;28;20025;-58
2023/10/01 07:20:00;;;;;;;11.00;7.93;;;487.00;2380.80;;;;;;5080765;28;20105;-58
2023/10/01 07:22:34;;;;;;;13.18;8.02;;;487.10;2380.80;;;;;;5080823;28;20035;-59
2023/10/01 07:25:00;;;;;;;14.05;8.52;;;487.10;2380.80;;;;;;5080063;28;20569;-60
2023/10/01 07:27:27;;;;;;;13.75;9.18;;;487.20;2380.80;;;;;;5077242;28;20016;-60
2023/10/01 07:29:54;;;;;;;13.88;8.32;;;487.30;2380.80;;;;;;5084326;28;20462;-58
2023/10/01 07:32:22;;;;;;;12.18;6.90;;;512.10;2380.80;;;;;;5078455;28;20471;-60
2023/10/01 07:34:55;;;;;;;15.45;7.85;;;512.70;2380.80;;;;;;5073517;28;20776;-59
2023/10/01 07:37:31;;;;;;;12.07;8.65;;;538.00;2406.40;;;;;;5084557;28;20016;-57
2023/10/01 07:40:17;;;;;;;12.55;8.63;;;563.60;2432.00;;;;;;5087422;28;20435;-60
2023/10/01 07:42:54;;;;;;;14.68;8.07;;;563.70;2432.00;;;;;;5066624;28;20035;-59
2023/10/01 07:45:20;;;;;;;11.50;8.43;;;589.10;2432.00;;;;;;5083563;28;20028;-60
2023/10/01 07:47:48;;;;;;;11.70;7.95;;;589.60;2432.00;;;;;;5086892;28;20024;-60
2023/10/01 07:50:16;;;;;;;12.30;8.27;;;589.50;2432.00;;;;;;5086819;28;20024;-60
2023/10/01 07:52:44;;;;;;;11.05;8.48;;;615.10;2432.00;;;;;;5086578;28;20028;-59
2023/10/01 07:58:22;;;;;;;11.43;8.98;;;640.10;2380.80;;;;;;5082334;28;20075;-59
2023/10/01 08:00:43;;;;;;;12.60;9.00;;;614.80;2432.00;;;;;;5078099;28;20044;-59
2023/10/01 08:05:48;;;;;;;14.45;9.15;;;589.20;2432.00;;;;;;5058001;28;20041;-60
2023/10/01 08:08:35;;;;;;;17.00;9.70;;;564.00;2432.00;;;;;;5084505;28;20089;-59
2023/10/01 08:11:40;;;;;;;14.77;10.15;;;563.40;2432.00;;;;;;5087438;28;20028;-59
2023/10/01 08:13:51;;;;;;;14.43;10.32;;;538.40;2406.40;;;;;;5087889;28;20028;-60
2023/10/01 08:16:16;;;;;;;18.35;11.23;;;538.40;2406.40;;;;;;5066685;28;20592;-59
2023/10/01 08:18:46;;;;;;;14.63;10.25;;;538.40;2406.40;;;;;;5080335;28;20103;-60
2023/10/01 08:21:17;;;;;;;31.42;26.27;;;538.20;2406.40;;;;;;5083382;28;20115;-61
2023/10/01 08:23:54;;;;;;;14.18;10.63;;;538.40;2406.40;;;;;;5077721;28;20039;-60
2023/10/01 08:26:49;;;;;;;16.88;11.43;;;538.50;2406.40;;;;;;5081926;28;20032;-59
2023/10/01 08:29:14;;;;;;;15.30;10.60;;;538.40;2406.40;;;;;;5070644;28;20036;-59
2023/10/01 08:32:08;;;;;;;14.02;9.90;;;563.20;2432.00;;;;;;5079086;28;20470;-58
2023/10/01 08:34:29;;;;;;;15.13;10.15;;;563.40;2432.00;;;;;;5070902;28;20021;-60
2023/10/01 08:36:57;;;;;;;19.55;11.57;;;563.60;2432.00;;;;;;5072569;28;20123;-59
2023/10/01 08:42:12;;;;;;;14.05;10.52;;;564.10;2432.00;;;;;;5061823;28;20173;-59
2023/10/01 08:44:49;;;;;;;15.38;11.95;;;588.80;2432.00;;;;;;5071035;28;20367;-60
2023/10/01 08:47:34;;;;;;;12.60;10.77;;;588.90;2432.00;;;;;;5069263;28;20025;-59
2023/10/01 08:52:57;;;;;;;17.40;11.13;;;589.70;2432.00;;;;;;5086843;28;20107;-60
2023/10/01 08:55:24;;;;;;;17.13;12.25;;;589.40;2432.00;;;;;;5079879;28;20060;-59
2023/10/01 08:57:53;;;;;;;14.68;10.65;;;589.10;2432.00;;;;;;5070177;28;20046;-60
2023/10/01 09:00:21;;;;;;;11.57;9.55;;;588.90;2432.00;;;;;;5075505;28;20051;-60
2023/10/01 09:02:55;;;;;;;12.23;9.25;;;564.10;2432.00;;;;;;5082090;28;20119;-60
2023/10/01 09:05:26;;;;;;;14.10;10.80;;;589.00;2432.00;;;;;;5089866;28;20032;-59
2023/10/01 09:10:51;;;;;;;12.18;9.90;;;589.50;2432.00;;;;;;5075519;28;20032;-60
2023/10/01 09:13:21;;;;;;;16.50;10.52;;;589.20;2432.00;;;;;;5075050;28;20024;-59
2023/10/01 09:15:55;;;;;;;13.93;9.93;;;589.30;2432.00;;;;;;5074911;28;20068;-60
2023/10/01 09:18:25;;;;;;;15.00;9.15;;;589.50;2432.00;;;;;;5075034;28;20032;-60
2023/10/01 09:21:06;;;;;;;14.18;10.07;;;589.50;2432.00;;;;;;5074626;28;20048;-60
2023/10/01 09:24:11;;;;;;;14.20;10.70;;;614.40;2432.00;;;;;;5075178;28;20099;-60
2023/10/01 09:26:53;;;;;;;16.10;12.38;;;614.80;2380.80;;;;;;5073258;28;20127;-60
2023/10/01 09:32:52;;;;;;;14.38;12.32;;;615.00;2355.20;;;;;;5074693;28;20040;-60
2023/10/01 09:35:31;;;;;;;14.45;12.05;;;615.00;2355.20;;;;;;5074534;28;20032;-60
2023/10/01 09:38:27;;;;;;;17.00;13.05;;;615.20;2329.60;;;;;;5074947;28;20035;-60
2023/10/01 09:40:54;;;;;;;17.40;14.38;;;615.30;2329.60;;;;;;5074060;28;20090;-60
2023/10/01 09:43:30;;;;;;;19.23;13.68;;;614.90;2329.60;;;;;;5074543;28;20150;-59
2023/10/01 09:45:58;;;;;;;16.67;12.88;;;614.70;2329.60;;;;;;5074333;28;20049;-59
2023/10/01 09:48:29;;;;;;;15.65;12.50;;;614.70;2329.60;;;;;;5074648;28;20374;-63
2023/10/01 09:51:13;;;;;;;14.32;12.50;;;614.70;2329.60;;;;;;5074332;28;20024;-63
2023/10/01 09:54:01;;;;;;;13.10;11.13;;;614.60;2355.20;;;;;;5074319;28;20024;-63
2023/10/01 09:59:11;;;;;;;15.60;11.02;;;614.80;2329.60;;;;;;5074560;28;20028;-63
2023/10/01 10:04:59;;;;;;;12.27;11.05;;;615.30;2304.00;;;;;;5074164;28;20090;-63
2023/10/01 10:07:26;;;;;;;15.77;10.93;;;615.30;2304.00;;;;;;5074278;28;20036;-63
2023/10/01 10:09:55;;;;;;;15.73;11.40;;;640.30;2252.80;;;;;;5073020;28;20064;-62
2023/10/01 10:12:33;;;;;;;14.70;10.27;;;640.50;2227.20;;;;;;5088206;28;20546;-64
2023/10/01 10:15:00;;;;;;;14.48;11.65;;;640.60;2201.60;;;;;;5089551;28;20440;-62
2023/10/01 10:17:27;;;;;;;15.23;12.05;;;640.40;2227.20;;;;;;5087720;28;20031;-62
2023/10/01 10:20:16;;;;;;;13.43;11.52;;;640.40;2201.60;;;;;;5088367;28;20084;-62
2023/10/01 10:23:13;;;;;;;13.63;11.82;;;640.20;2227.20;;;;;;5066748;28;20062;-64
2023/10/01 10:25:40;;;;;;;16.00;11.73;;;615.30;2252.80;;;;;;5088405;28;20474;-64
2023/10/01 10:28:06;;;;;;;13.82;11.38;;;615.10;2278.40;;;;;;5070411;28;20062;-62
2023/10/01 10:30:32;;;;;;;15.13;13.18;;;615.20;2252.80;;;;;;5076069;28;20036;-64
2023/10/01 10:33:30;;;;;;;25.25;17.63;;;615.20;2252.80;;;;;;5086305;28;20030;-65
2023/10/01 10:36:49;;;;;;;18.45;13.13;;;615.20;2278.40;;;;;;5088133;28;20032;-62
2023/10/01 10:39:50;;;;;;;16.77;13.35;;;615.20;2278.40;;;;;;5088558;28;20032;-64
2023/10/01 10:42:28;;;;;;;15.90;13.07;;;615.10;2252.80;;;;;;5081759;28;20058;-62
2023/10/01 10:45:21;;;;;;;16.73;13.43;;;614.80;2304.00;;;;;;5084129;28;20135;-61
2023/10/01 10:48:03;;;;;;;22.73;13.35;;;614.70;2304.00;;;;;;5068780;28;20552;-63
2023/10/01 10:50:53;;;;;;;16.65;13.82;;;614.40;2329.60;;;;;;5077514;28;20055;-62
2023/10/01 10:53:46;;;;;;;17.52;13.68;;;589.40;2380.80;;;;;;5068893;28;20130;-63
2023/10/01 10:56:15;;;;;;;20.88;14.23;;;589.30;2380.80;;;;;;5087001;28;20033;-63
2023/10/01 10:59:13;;;;;;;18.20;14.07;;;589.40;2406.40;;;;;;5088157;28;20051;-63
2023/10/01 11:01:46;;;;;;;18.90;14.43;;;589.50;2380.80;;;;;;5060352;28;20394;-62
2023/10/01 11:04:16;;;;;;;19.00;14.68;;;589.30;2380.80;;;;;;5078013;28;20075;-63
2023/10/01 11:06:42;;;;;;;17.08;15.27;;;589.20;2406.40;;;;;;5079976;28;20066;-63
2023/10/01 11:09:23;;;;;;;17.10;14.80;;;589.30;2406.40;;;;;;5083320;28;20036;-62
2023/10/01 11:11:51;;;;;;;22.30;17.92;;;589.40;2406.40;;;;;;5087198;28;20028;-63
2023/10/01 11:14:16;;;;;;;20.67;15.70;;;589.60;2406.40;;;;;;5087208;28;20031;-64
2023/10/01 11:16:46;;;;;;;17.50;14.80;;;589.50;2406.40;;;;;;5087592;28;20040;-63
2023/10/01 11:19:14;;;;;;;19.92;15.57;;;589.40;2406.40;;;;;;5086954;28;20079;-62
2023/10/01 11:21:56;;;;;;;17.67;14.05;;;589.40;2406.40;;;;;;5075985;28;20431;-63
2023/10/01 11:24:31;;;;;;;16.95;14.82;;;589.70;2355.20;;;;;;5087349;28;20567;-64
2023/10/01 11:30:13;;;;;;;16.50;14.45;;;614.50;2355.20;;;;;;5087478;28;20092;-63
2023/10/01 11:33:03;;;;;;;20.58;15.45;;;614.80;2329.60;;;;;;5087414;28;20020;-63
2023/10/01 11:35:33;;;;;;;19.08;15.57;;;614.80;2329.60;;;;;;5085693;28;20032;-63
2023/10/01 11:38:07;;;;;;;17.58;15.45;;;614.50;2355.20;;;;;;5078810;28;20043;-63
2023/10/01 11:43:27;;;;;;;19.88;17.55;;;614.90;2329.60;;;;;;5087585;28;20123;-63
2023/10/01 11:46:19;;;;;;;18.80;15.38;;;614.90;2329.60;;;;;;5086614;28;20504;-62
2023/10/01 11:49:10;;;;;;;17.35;15.30;;;615.00;2304.00;;;;;;5086937;28;20024;-63
2023/10/01 11:51:45;;;;;;;18.92;15.52;;;614.90;2329.60;;;;;;5087335;28;20114;-63
2023/10/01 11:54:14;;;;;;;22.25;15.68;;;614.80;2304.00;;;;;;5088182;28;20071;-62
2023/10/01 11:57:04;;;;;;;18.20;15.98;;;614.70;2329.60;;;;;;5090706;28;20404;-64
2023/10/01 11:59:31;;;;;;;18.70;16.52;;;589.70;2355.20;;;;;;5091471;28;20022;-64
2023/10/01 12:02:15;;;;;;;21.77;17.08;;;589.70;2329.60;;;;;;5090262;28;20020;-62
2023/10/01 12:04:45;;;;;;;17.85;16.05;;;614.50;2329.60;;;;;;5090957;28;20113;-64
2023/10/01 12:07:16;;;;;;;20.73;15.38;;;614.60;2329.60;;;;;;5064554;28;20035;-64
2023/10/01 12:09:48;;;;;;;18.58;14.02;;;614.80;2304.00;;;;;;5070853;28;20116;-64
2023/10/01 12:12:18;;;;;;;24.83;16.35;;;614.70;2304.00;;;;;;5091064;28;20016;-63
2023/10/01 12:14:54;;;;;;;15.50;13.82;;;614.80;2278.40;;;;;;5090529;28;20440;-65
2023/10/01 12:17:23;;;;;;;17.33;15.52;;;614.60;2278.40;;;;;;5090124;28;20035;-64
2023/10/01 12:19:53;;;;;;;18.17;15.75;;;614.60;2304.00;;;;;;5090523;28;20052;-65
2023/10/01 12:22:23;;;;;;;16.67;14.98;;;614.60;2329.60;;;;;;5064981;28;20702;-63
2023/10/01 12:24:56;;;;;;;17.05;15.00;;;614.50;2329.60;;;;;;5090926;28;20047;-63
2023/10/01 12:27:42;;;;;;;19.08;16.67;;;589.60;2329.60;;;;;;5090762;28;20027;-63
2023/10/01 12:30:29;;;;;;;18.20;15.40;;;589.50;2355.20;;;;;;5090477;28;20032;-63
2023/10/01 12:33:02;;;;;;;18.90;15.15;;;589.70;2329.60;;;;;;5090155;28;20517;-63
2023/10/01 12:35:28;;;;;;;18.50;16.60;;;589.50;2329.60;;;;;;5090542;28;20060;-63
2023/10/01 12:40:40;;;;;;;15.45;14.00;;;589.50;2329.60;;;;;;5074744;28;20632;-64
2023/10/01 12:45:54;;;;;;;15.75;14.15;;;589.50;2329.60;;;;;;5069470;28;20099;-64
2023/10/01 12:48:20;;;;;;;17.80;15.00;;;589.50;2329.60;;;;;;5086260;28;20047;-63
2023/10/01 12:51:07;;;;;;;17.33;14.68;;;589.40;2329.60;;;;;;5090633;28;20101;-65
2023/10/01 12:53:49;;;;;;;17.25;14.35;;;589.60;2329.60;;;;;;5072904;28;20040;-64
2023/10/01 12:56:21;;;;;;;16.52;14.85;;;589.50;2329.60;;;;;;5073411;28;20541;-64
2023/10/01 12:58:53;;;;;;;17.17;14.07;;;589.60;2329.60;;;;;;5089513;28;20369;-64
2023/10/01 13:01:32;;;;;;;17.37;12.93;;;589.50;2304.00;;;;;;5077809;28;20377;-64
2023/10/01 13:06:46;;;;;;;14.80;13.30;;;589.20;2329.60;;;;;;5088348;28;20035;-63
2023/10/01 13:09:35;;;;;;;17.88;14.73;;;589.30;2304.00;;;;;;5090017;28;20103;-63
2023/10/01 13:12:13;;;;;;;14.48;12.52;;;589.40;2278.40;;;;;;5089101;28;20028;-64
2023/10/01 13:14:40;;;;;;;13.27;11.93;;;589.50;2304.00;;;;;;5073026;28;20089;-63
2023/10/01 13:17:19;;;;;;;16.52;13.57;;;589.60;2304.00;;;;;;5074415;28;20447;-64
2023/10/01 13:19:48;;;;;;;12.23;10.93;;;589.30;2304.00;;;;;;5087584;28;20044;-63
2023/10/01 13:22:16;;;;;;;12.48;10.40;;;589.20;2252.80;;;;;;5089713;28;20036;-63